createdAt,value
2018-07-26T00:00:55.382Z,23.20
2018-07-26T00:02:59.948Z,23.10
2018-07-26T00:05:04.929Z,23.10
2018-07-26T00:07:10.710Z,23.10
2018-07-26T00:09:15.248Z,23.00
2018-07-26T00:11:26.367Z,23.00
2018-07-26T00:13:31.113Z,23.00
2018-07-26T00:15:39.608Z,23.00
2018-07-26T00:17:46.629Z,23.00
2018-07-26T00:19:51.331Z,22.90
2018-07-26T00:21:55.960Z,22.90
2018-07-26T00:24:02.554Z,22.80
2018-07-26T00:26:07.282Z,22.80
2018-07-26T00:28:11.970Z,22.80
2018-07-26T00:30:16.522Z,22.80
2018-07-26T00:32:21.148Z,22.70
2018-07-26T00:34:25.712Z,22.70
2018-07-26T00:36:32.559Z,22.60
2018-07-26T00:38:37.143Z,22.60
2018-07-26T00:40:41.868Z,22.50
2018-07-26T00:42:46.402Z,22.60
2018-07-26T00:44:52.924Z,22.50
2018-07-26T00:46:57.450Z,22.50
2018-07-26T00:49:03.268Z,22.50
2018-07-26T00:51:07.950Z,22.50
2018-07-26T00:53:12.637Z,22.50
2018-07-26T00:55:18.698Z,22.50
2018-07-26T00:57:23.373Z,22.50
2018-07-26T00:59:28.134Z,22.50
2018-07-26T01:01:32.762Z,22.50
2018-07-26T01:03:39.742Z,22.40
2018-07-26T01:05:44.477Z,22.40
2018-07-26T01:07:49.133Z,22.40
2018-07-26T01:09:54.852Z,22.30
2018-07-26T01:12:07.842Z,22.30
2018-07-26T01:14:12.371Z,22.20
2018-07-26T01:16:17.952Z,22.20
2018-07-26T01:18:22.475Z,22.10
2018-07-26T01:20:30.248Z,22.10
2018-07-26T01:22:34.912Z,22.10
2018-07-26T01:24:44.035Z,22.00
2018-07-26T01:26:48.555Z,22.00
2018-07-26T01:28:54.517Z,22.00
2018-07-26T01:30:59.067Z,21.90
2018-07-26T01:33:03.943Z,21.90
2018-07-26T01:35:08.560Z,21.90
2018-07-26T01:37:13.236Z,21.80
2018-07-26T01:39:17.926Z,21.80
2018-07-26T01:41:22.627Z,21.70
2018-07-26T01:44:03.604Z,21.70
2018-07-26T01:46:08.129Z,21.60
2018-07-26T01:48:12.750Z,21.50
2018-07-26T01:50:17.334Z,21.50
2018-07-26T01:52:24.373Z,21.50
2018-07-26T01:54:28.940Z,21.40
2018-07-26T01:56:34.481Z,21.40
2018-07-26T01:58:39.085Z,21.40
2018-07-26T02:00:43.771Z,21.40
2018-07-26T02:02:49.088Z,21.40
2018-07-26T02:04:53.921Z,21.40
2018-07-26T02:06:58.651Z,21.40
2018-07-26T02:09:06.423Z,21.40
2018-07-26T02:11:11.136Z,21.40
2018-07-26T02:15:19.884Z,21.30
2018-07-26T02:17:25.622Z,21.30
2018-07-26T02:19:30.227Z,21.30
2018-07-26T02:21:34.907Z,21.30
2018-07-26T02:23:39.510Z,21.30
2018-07-26T02:25:44.394Z,21.20
2018-07-26T02:27:49.215Z,21.20
2018-07-26T02:29:54.385Z,21.20
2018-07-26T02:31:59.179Z,21.20
2018-07-26T02:34:03.966Z,21.10
2018-07-26T02:36:08.565Z,21.00
2018-07-26T02:38:13.184Z,21.00
2018-07-26T02:40:17.873Z,20.90
2018-07-26T02:42:22.703Z,20.90
2018-07-26T02:44:29.900Z,20.90
2018-07-26T02:46:38.821Z,20.80
2018-07-26T02:48:43.453Z,20.90
2018-07-26T02:50:48.199Z,20.80
2018-07-26T02:52:54.570Z,20.80
2018-07-26T02:55:00.543Z,20.80
2018-07-26T02:57:07.390Z,20.70
2018-07-26T02:59:12.998Z,20.70
2018-07-26T03:01:18.553Z,20.70
2018-07-26T03:03:23.358Z,20.70
2018-07-26T03:05:28.649Z,20.70
2018-07-26T03:07:33.401Z,20.70
2018-07-26T03:09:38.521Z,20.70
2018-07-26T03:11:43.308Z,20.70
2018-07-26T03:13:47.862Z,20.60
2018-07-26T03:15:52.564Z,20.60
2018-07-26T03:17:58.616Z,20.60
2018-07-26T03:20:05.366Z,20.50
2018-07-26T03:22:14.797Z,20.40
2018-07-26T03:24:19.357Z,20.30
2018-07-26T03:26:24.154Z,20.30
2018-07-26T03:28:29.650Z,20.30
2018-07-26T03:30:34.238Z,20.30
2018-07-26T03:32:38.957Z,20.30
2018-07-26T03:34:43.471Z,20.30
2018-07-26T03:36:48.128Z,20.30
2018-07-26T03:40:59.329Z,20.20
2018-07-26T03:43:03.858Z,20.20
2018-07-26T03:45:09.938Z,20.20
2018-07-26T03:47:14.658Z,20.20
2018-07-26T03:49:26.153Z,20.20
2018-07-26T03:51:31.143Z,20.20
2018-07-26T03:53:36.007Z,20.20
2018-07-26T03:55:41.093Z,20.20
2018-07-26T03:57:45.584Z,20.20
2018-07-26T03:59:51.692Z,20.10
2018-07-26T04:01:56.326Z,20.10
2018-07-26T04:04:00.877Z,20.10
2018-07-26T04:08:18.824Z,20.10
2018-07-26T04:10:23.769Z,20.20
2018-07-26T04:12:28.409Z,20.10
2018-07-26T04:14:33.409Z,20.10
2018-07-26T04:16:38.038Z,20.10
2018-07-26T04:18:42.926Z,20.00
2018-07-26T04:20:49.147Z,20.00
2018-07-26T04:22:55.526Z,19.90
2018-07-26T04:25:00.064Z,19.90
2018-07-26T04:27:04.663Z,19.90
2018-07-26T04:29:09.711Z,19.90
2018-07-26T04:31:14.369Z,19.90
2018-07-26T04:33:18.954Z,19.90
2018-07-26T04:35:24.563Z,19.90
2018-07-26T04:37:30.555Z,19.90
2018-07-26T04:39:37.662Z,19.90
2018-07-26T04:41:42.800Z,19.80
2018-07-26T04:43:47.479Z,19.80
2018-07-26T04:45:53.545Z,19.80
2018-07-26T04:47:58.206Z,19.90
2018-07-26T04:50:02.881Z,19.90
2018-07-26T04:52:11.935Z,19.90
2018-07-26T04:54:16.905Z,20.00
2018-07-26T04:56:21.608Z,20.00
2018-07-26T04:58:26.426Z,20.10
2018-07-26T05:00:35.110Z,20.10
2018-07-26T05:02:41.848Z,20.10
2018-07-26T05:04:46.605Z,20.20
2018-07-26T05:06:51.827Z,20.20
2018-07-26T05:08:56.795Z,20.20
2018-07-26T05:11:02.889Z,20.30
2018-07-26T05:13:07.564Z,20.30
2018-07-26T05:15:12.092Z,20.40
2018-07-26T05:17:16.818Z,20.40
2018-07-26T05:19:21.356Z,20.40
2018-07-26T05:21:26.128Z,20.50
2018-07-26T05:23:30.785Z,20.50
2018-07-26T05:25:35.690Z,20.50
2018-07-26T05:29:44.512Z,20.60
2018-07-26T05:31:49.040Z,20.60
2018-07-26T05:33:54.134Z,20.60
2018-07-26T05:36:00.102Z,20.70
2018-07-26T05:38:04.980Z,20.80
2018-07-26T05:40:09.795Z,20.90
2018-07-26T05:42:14.499Z,20.90
2018-07-26T05:46:28.343Z,21.10
2018-07-26T05:48:33.890Z,21.20
2018-07-26T05:50:38.575Z,21.40
2018-07-26T05:52:43.464Z,21.50
2018-07-26T05:54:52.853Z,21.70
2018-07-26T05:56:57.413Z,21.90
2018-07-26T05:59:02.356Z,22.10
2018-07-26T06:01:10.323Z,22.20
2018-07-26T06:03:16.056Z,22.40
2018-07-26T06:05:20.637Z,22.50
2018-07-26T06:07:26.298Z,22.60
2018-07-26T06:09:36.043Z,22.80
2018-07-26T06:11:41.385Z,23.00
2018-07-26T06:13:46.968Z,23.10
2018-07-26T06:15:51.789Z,23.30
2018-07-26T06:17:57.505Z,23.50
2018-07-26T06:20:02.126Z,23.60
2018-07-26T06:22:08.082Z,23.80
2018-07-26T06:24:16.126Z,23.90
2018-07-26T06:26:20.979Z,24.10
2018-07-26T06:28:25.540Z,24.20
2018-07-26T06:30:31.208Z,24.40
2018-07-26T06:32:37.269Z,24.50
2018-07-26T06:34:47.880Z,24.70
2018-07-26T06:36:52.434Z,24.80
2018-07-26T06:38:57.385Z,24.90
2018-07-26T06:41:05.125Z,25.00
2018-07-26T06:43:14.158Z,25.20
2018-07-26T06:45:18.732Z,25.30
2018-07-26T06:47:23.437Z,25.40
2018-07-26T06:49:32.652Z,25.60
2018-07-26T06:51:38.853Z,25.60
2018-07-26T06:53:43.498Z,25.80
2018-07-26T06:55:48.029Z,25.90
2018-07-26T06:57:57.727Z,26.00
2018-07-26T07:00:03.789Z,26.10
2018-07-26T07:02:08.807Z,26.20
2018-07-26T07:04:13.343Z,26.30
2018-07-26T07:06:21.752Z,26.40
2018-07-26T07:08:32.123Z,26.50
2018-07-26T07:10:40.741Z,26.50
2018-07-26T07:12:45.446Z,26.60
2018-07-26T07:14:52.605Z,26.70
2018-07-26T07:17:02.413Z,26.90
2018-07-26T07:19:08.230Z,27.00
2018-07-26T07:21:13.396Z,27.20
2018-07-26T07:23:17.945Z,27.20
2018-07-26T07:25:22.758Z,27.40
2018-07-26T07:27:28.031Z,27.50
2018-07-26T07:29:32.752Z,27.70
2018-07-26T07:31:37.239Z,27.80
2018-07-26T07:33:41.880Z,28.00
2018-07-26T07:35:48.684Z,28.20
2018-07-26T07:37:54.696Z,28.30
2018-07-26T07:39:59.410Z,28.50
2018-07-26T07:42:04.224Z,28.60
2018-07-26T07:44:10.853Z,28.60
2018-07-26T07:46:15.469Z,28.80
2018-07-26T07:48:20.057Z,28.80
2018-07-26T07:50:24.835Z,28.90
2018-07-26T07:52:35.034Z,28.90
2018-07-26T07:54:39.549Z,28.90
2018-07-26T07:58:54.853Z,29.20
2018-07-26T08:00:59.708Z,29.40
2018-07-26T08:03:05.593Z,29.50
2018-07-26T08:05:12.532Z,29.60
2018-07-26T08:07:17.250Z,29.60
2018-07-26T08:09:22.128Z,29.60
2018-07-26T08:11:26.834Z,29.60
2018-07-26T08:13:37.423Z,29.60
2018-07-26T08:15:42.176Z,29.80
2018-07-26T08:17:47.028Z,29.90
2018-07-26T08:19:51.567Z,30.00
2018-07-26T08:21:57.734Z,30.10
2018-07-26T08:24:03.145Z,30.30
2018-07-26T08:26:07.953Z,30.50
2018-07-26T08:32:23.829Z,30.70
2018-07-26T08:34:28.349Z,30.80
2018-07-26T08:36:33.317Z,30.80
2018-07-26T08:38:37.993Z,31.00
2018-07-26T08:40:42.713Z,31.00
2018-07-26T08:47:58.763Z,31.60
2018-07-26T08:50:06.832Z,31.70
2018-07-26T08:52:11.482Z,31.70
2018-07-26T08:54:17.015Z,31.70
2018-07-26T08:56:21.904Z,31.80
2018-07-26T08:58:27.493Z,31.80
2018-07-26T09:00:37.666Z,31.90
2018-07-26T09:02:42.499Z,31.90
2018-07-26T09:04:47.660Z,32.00
2018-07-26T09:06:52.450Z,32.00
2018-07-26T09:09:13.272Z,32.00
2018-07-26T09:11:20.363Z,32.10
2018-07-26T09:13:25.301Z,32.20
2018-07-26T09:15:29.730Z,32.40
2018-07-26T09:17:36.646Z,32.60
2018-07-26T09:19:42.851Z,32.60
2018-07-26T09:21:48.884Z,32.70
2018-07-26T09:23:53.506Z,32.80
2018-07-26T09:25:58.094Z,32.90
2018-07-26T09:28:07.984Z,33.00
2018-07-26T09:30:13.116Z,33.10
2018-07-26T09:32:18.039Z,33.20
2018-07-26T09:34:27.237Z,33.30
2018-07-26T09:36:33.907Z,33.40
2018-07-26T09:38:39.065Z,33.50
2018-07-26T09:40:44.000Z,33.50
2018-07-26T09:42:50.035Z,33.50
2018-07-26T09:44:57.965Z,33.60
2018-07-26T09:47:03.012Z,33.70
2018-07-26T09:49:07.643Z,33.70
2018-07-26T09:51:12.243Z,34.00
2018-07-26T09:53:23.321Z,34.00
2018-07-26T09:55:27.809Z,34.10
2018-07-26T09:57:33.011Z,34.20
2018-07-26T09:59:39.713Z,34.30
2018-07-26T10:01:45.031Z,34.40
2018-07-26T10:03:55.684Z,34.40
2018-07-26T10:06:05.584Z,34.50
2018-07-26T10:10:30.446Z,34.50
2018-07-26T10:12:37.169Z,34.50
2018-07-26T10:14:42.671Z,34.50
2018-07-26T10:16:47.774Z,34.40
2018-07-26T10:18:54.701Z,34.60
2018-07-26T10:21:04.648Z,34.60
2018-07-26T10:23:09.852Z,34.60
2018-07-26T10:25:16.197Z,34.40
2018-07-26T10:27:20.813Z,34.20
2018-07-26T10:31:38.179Z,33.90
2018-07-26T10:33:42.931Z,34.00
2018-07-26T10:35:47.524Z,34.00
2018-07-26T10:37:51.988Z,34.00
2018-07-26T10:39:57.515Z,34.20
2018-07-26T10:42:02.531Z,34.20
2018-07-26T10:44:08.126Z,34.20
2018-07-26T10:46:12.673Z,34.20
2018-07-26T10:48:18.522Z,34.30
2018-07-26T10:50:27.460Z,34.30
2018-07-26T10:52:32.611Z,34.40
2018-07-26T10:54:38.914Z,34.60
2018-07-26T10:56:43.424Z,34.80
2018-07-26T10:58:50.459Z,34.90
2018-07-26T11:00:57.008Z,34.90
2018-07-26T11:03:01.609Z,35.00
2018-07-26T11:05:07.978Z,35.10
2018-07-26T11:07:12.397Z,35.00
2018-07-26T11:09:24.292Z,35.10
2018-07-26T11:11:29.621Z,35.30
2018-07-26T11:13:34.306Z,35.70
2018-07-26T11:15:43.390Z,35.80
2018-07-26T11:17:48.754Z,35.70
2018-07-26T11:19:53.290Z,35.20
2018-07-26T11:21:58.606Z,34.90
2018-07-26T11:24:08.996Z,34.90
2018-07-26T11:26:16.924Z,35.10
2018-07-26T11:28:23.288Z,35.20
2018-07-26T11:30:28.625Z,35.20
2018-07-26T11:32:38.673Z,35.30
2018-07-26T11:34:43.229Z,35.40
2018-07-26T11:36:48.446Z,35.40
2018-07-26T11:38:54.647Z,35.50
2018-07-26T11:41:06.566Z,35.50
2018-07-26T11:43:11.084Z,35.60
2018-07-26T11:45:18.145Z,35.70
2018-07-26T11:47:22.795Z,35.90
2018-07-26T11:49:33.381Z,36.10
2018-07-26T11:51:38.684Z,36.20
2018-07-26T11:53:43.355Z,36.20
2018-07-26T11:55:47.902Z,36.50
2018-07-26T11:57:59.461Z,36.60
2018-07-26T12:00:12.236Z,36.60
2018-07-26T12:02:21.051Z,36.40
2018-07-26T12:04:25.925Z,36.50
2018-07-26T12:06:31.565Z,36.30
2018-07-26T12:08:36.537Z,36.30
2018-07-26T12:10:42.513Z,36.30
2018-07-26T12:12:55.312Z,36.50
2018-07-26T12:15:00.049Z,36.30
2018-07-26T12:17:08.811Z,36.40
2018-07-26T12:19:20.075Z,36.60
2018-07-26T12:21:24.669Z,36.40
2018-07-26T12:23:29.382Z,36.20
2018-07-26T12:25:34.489Z,36.30
2018-07-26T12:27:47.995Z,36.30
2018-07-26T12:29:53.089Z,36.30
2018-07-26T12:31:57.961Z,36.30
2018-07-26T12:34:07.228Z,36.60
2018-07-26T12:36:11.933Z,36.50
2018-07-26T12:38:16.497Z,36.40
2018-07-26T12:40:21.490Z,36.20
2018-07-26T12:42:33.859Z,36.20
2018-07-26T12:44:38.599Z,36.10
2018-07-26T12:46:43.339Z,36.00
2018-07-26T12:48:48.006Z,35.90
2018-07-26T12:51:00.287Z,35.70
2018-07-26T12:53:05.218Z,35.70
2018-07-26T12:55:10.131Z,35.90
2018-07-26T12:57:17.713Z,36.20
2018-07-26T12:59:28.925Z,36.40
2018-07-26T13:01:33.794Z,36.40
2018-07-26T13:03:42.627Z,36.60
2018-07-26T13:05:48.075Z,36.50
2018-07-26T13:07:52.896Z,36.40
2018-07-26T13:09:58.573Z,36.40
2018-07-26T13:12:05.076Z,36.40
2018-07-26T13:14:09.848Z,36.50
2018-07-26T13:16:15.524Z,36.60
2018-07-26T13:18:23.721Z,36.70
2018-07-26T13:20:30.116Z,36.70
2018-07-26T13:22:34.634Z,36.40
2018-07-26T13:24:40.651Z,36.20
2018-07-26T13:26:52.943Z,36.20
2018-07-26T13:28:57.518Z,36.30
2018-07-26T13:31:02.744Z,36.40
2018-07-26T13:33:10.415Z,36.40
2018-07-26T13:37:21.268Z,36.20
2018-07-26T13:39:26.060Z,36.40
2018-07-26T13:41:36.697Z,36.60
2018-07-26T13:43:43.079Z,36.70
2018-07-26T13:45:47.755Z,36.60
2018-07-26T13:47:53.077Z,36.40
2018-07-26T13:50:01.250Z,36.20
2018-07-26T13:52:21.877Z,36.20
2018-07-26T13:54:35.892Z,36.20
2018-07-26T13:56:40.402Z,36.20
2018-07-26T14:00:49.778Z,36.00
2018-07-26T14:02:55.400Z,35.80
2018-07-26T14:05:00.476Z,35.70
2018-07-26T14:07:06.040Z,35.80
2018-07-26T14:09:17.308Z,35.90
2018-07-26T14:11:25.011Z,35.90
2018-07-26T14:13:29.702Z,36.00
2018-07-26T14:15:34.316Z,36.10
2018-07-26T14:17:40.084Z,36.40
2018-07-26T14:19:45.405Z,36.60
2018-07-26T14:21:50.669Z,36.80
2018-07-26T14:24:03.789Z,36.70
2018-07-26T14:26:10.355Z,36.50
2018-07-26T14:30:20.375Z,36.10
2018-07-26T14:32:25.214Z,36.20
2018-07-26T14:34:33.718Z,36.30
2018-07-26T14:36:39.235Z,36.50
2018-07-26T14:38:43.618Z,36.60
2018-07-26T14:40:48.095Z,36.70
2018-07-26T14:43:00.408Z,36.70
2018-07-26T14:45:05.790Z,36.80
2018-07-26T14:47:10.384Z,36.60
2018-07-26T14:49:14.811Z,36.40
2018-07-26T14:51:30.596Z,36.50
2018-07-26T14:53:35.060Z,36.50
2018-07-26T14:55:39.511Z,36.50
2018-07-26T14:57:44.022Z,36.50
2018-07-26T14:59:54.792Z,36.60
2018-07-26T15:01:59.396Z,36.60
2018-07-26T15:04:07.823Z,36.60
2018-07-26T15:06:13.039Z,36.50
2018-07-26T15:08:22.381Z,36.30
2018-07-26T15:10:26.995Z,36.20
2018-07-26T15:12:33.802Z,36.20
2018-07-26T15:14:38.687Z,36.20
2018-07-26T15:16:50.062Z,36.50
2018-07-26T15:18:54.818Z,36.70
2018-07-26T15:20:59.598Z,36.80
2018-07-26T15:23:11.056Z,36.80
2018-07-26T15:25:24.319Z,36.70
2018-07-26T15:27:28.840Z,36.80
2018-07-26T15:29:33.548Z,36.80
2018-07-26T15:31:44.648Z,36.90
2018-07-26T15:33:50.818Z,36.90
2018-07-26T15:35:56.341Z,37.00
2018-07-26T15:38:00.881Z,36.90
2018-07-26T15:40:10.761Z,36.80
2018-07-26T15:42:19.326Z,36.60
2018-07-26T15:44:24.028Z,36.30
2018-07-26T15:46:31.632Z,36.20
2018-07-26T15:48:36.595Z,36.20
2018-07-26T15:50:41.164Z,36.20
2018-07-26T15:52:45.634Z,36.20
2018-07-26T15:54:51.778Z,36.20
2018-07-26T15:56:56.272Z,36.20
2018-07-26T15:59:01.642Z,36.00
2018-07-26T16:01:06.172Z,35.90
2018-07-26T16:03:10.778Z,35.80
2018-07-26T16:05:18.609Z,35.80
2018-07-26T16:07:26.857Z,35.90
2018-07-26T16:09:31.416Z,36.00
2018-07-26T16:11:37.827Z,36.00
2018-07-26T16:13:42.726Z,35.90
2018-07-26T16:15:51.979Z,35.80
2018-07-26T16:17:56.423Z,35.80
2018-07-26T16:20:02.338Z,35.60
2018-07-26T16:22:12.739Z,35.60
2018-07-26T16:24:21.519Z,35.60
2018-07-26T16:26:26.140Z,35.40
2018-07-26T16:28:31.034Z,35.30
2018-07-26T16:30:39.131Z,35.20
2018-07-26T16:32:47.457Z,35.10
2018-07-26T16:34:57.848Z,35.00
2018-07-26T16:37:02.557Z,34.90
2018-07-26T16:39:09.413Z,34.90
2018-07-26T16:41:13.894Z,34.80
2018-07-26T16:43:18.921Z,34.90
2018-07-26T16:45:23.411Z,34.80
2018-07-26T16:47:29.147Z,34.80
2018-07-26T16:51:48.931Z,34.70
2018-07-26T16:53:57.459Z,34.70
2018-07-26T16:56:02.043Z,34.70
2018-07-26T16:58:16.096Z,34.60
2018-07-26T17:00:20.585Z,34.60
2018-07-26T17:02:26.269Z,34.60
2018-07-26T17:04:31.487Z,34.60
2018-07-26T17:06:38.688Z,34.60
2018-07-26T17:08:43.141Z,34.50
2018-07-26T17:10:48.371Z,34.40
2018-07-26T17:12:53.222Z,34.40
2018-07-26T17:15:08.926Z,34.40
2018-07-26T17:17:13.593Z,34.40
2018-07-26T17:19:18.320Z,34.30
2018-07-26T17:21:22.738Z,34.30
2018-07-26T17:23:32.037Z,34.20
2018-07-26T17:25:36.537Z,34.10
2018-07-26T17:27:41.428Z,34.00
2018-07-26T17:29:45.837Z,33.90
2018-07-26T17:31:58.088Z,33.80
2018-07-26T17:34:06.957Z,33.80
2018-07-26T17:36:11.697Z,33.70
2018-07-26T17:38:16.907Z,33.60
2018-07-26T17:40:27.755Z,33.40
2018-07-26T17:42:33.810Z,33.30
2018-07-26T17:44:38.864Z,33.30
2018-07-26T17:46:43.406Z,33.20
2018-07-26T17:48:52.394Z,33.20
2018-07-26T17:50:57.337Z,33.20
2018-07-26T17:53:01.889Z,33.10
2018-07-26T17:55:06.612Z,33.00
2018-07-26T17:59:18.084Z,32.90
2018-07-26T18:01:22.584Z,32.80
2018-07-26T18:03:29.218Z,32.80
2018-07-26T18:05:48.348Z,32.80
2018-07-26T18:08:07.004Z,32.80
2018-07-26T18:10:11.497Z,32.70
2018-07-26T18:12:16.352Z,32.70
2018-07-26T18:14:21.151Z,32.60
2018-07-26T18:16:34.566Z,32.50
2018-07-26T18:18:39.090Z,32.50
2018-07-26T18:20:43.720Z,32.50
2018-07-26T18:22:48.250Z,32.40
2018-07-26T18:25:07.903Z,32.40
2018-07-26T18:27:12.517Z,32.30
2018-07-26T18:29:18.556Z,32.20
2018-07-26T18:31:23.316Z,32.10
2018-07-26T18:33:28.648Z,32.10
2018-07-26T18:35:33.362Z,32.00
2018-07-26T18:37:38.131Z,31.90
2018-07-26T18:39:42.712Z,31.90
2018-07-26T18:41:47.326Z,31.80
2018-07-26T18:43:53.579Z,31.80
2018-07-26T18:45:58.564Z,31.70
2018-07-26T18:48:03.173Z,31.70
2018-07-26T18:50:09.358Z,31.60
2018-07-26T18:52:15.253Z,31.60
2018-07-26T18:54:21.217Z,31.50
2018-07-26T18:56:25.999Z,31.40
2018-07-26T18:58:30.665Z,31.30
2018-07-26T19:00:41.040Z,31.30
2018-07-26T19:02:45.595Z,31.20
2018-07-26T19:04:51.059Z,31.10
2018-07-26T19:06:55.939Z,31.10
2018-07-26T19:09:02.963Z,31.00
2018-07-26T19:11:07.689Z,31.00
2018-07-26T19:13:14.252Z,31.00
2018-07-26T19:17:39.764Z,30.80
2018-07-26T19:19:44.569Z,30.80
2018-07-26T19:21:49.680Z,30.70
2018-07-26T19:23:59.883Z,30.60
2018-07-26T19:26:05.082Z,30.40
2018-07-26T19:28:11.692Z,30.20
2018-07-26T19:30:16.553Z,30.00
2018-07-26T19:32:23.033Z,29.90
2018-07-26T19:34:30.634Z,29.90
2018-07-26T19:36:37.406Z,29.90
2018-07-26T19:38:42.158Z,29.90
2018-07-26T19:40:46.867Z,29.90
2018-07-26T19:45:07.971Z,29.70
2018-07-26T19:47:12.640Z,29.70
2018-07-26T19:49:17.947Z,29.70
2018-07-26T19:51:22.489Z,29.60
2018-07-26T19:53:28.617Z,29.60
2018-07-26T19:55:33.510Z,29.50
2018-07-26T19:57:39.126Z,29.50
2018-07-26T19:59:43.636Z,29.40
2018-07-26T20:01:48.598Z,29.40
2018-07-26T20:03:56.355Z,29.30
2018-07-26T20:06:03.801Z,29.30
2018-07-26T20:08:09.070Z,29.30
2018-07-26T20:10:14.013Z,29.30
2018-07-26T20:12:24.373Z,29.20
2018-07-26T20:14:30.472Z,29.20
2018-07-26T20:16:34.938Z,29.20
2018-07-26T20:18:40.574Z,29.10
2018-07-26T20:20:47.364Z,29.10
2018-07-26T20:22:55.065Z,29.10
2018-07-26T20:25:00.097Z,29.00
2018-07-26T20:27:05.271Z,28.90
2018-07-26T20:29:10.919Z,28.90
2018-07-26T20:33:21.047Z,28.80
2018-07-26T20:35:25.521Z,28.70
2018-07-26T20:37:31.934Z,28.70
2018-07-26T20:41:42.755Z,28.50
2018-07-26T20:43:48.120Z,28.50
2018-07-26T20:45:53.975Z,28.40
2018-07-26T20:47:59.556Z,28.40
2018-07-26T20:50:04.906Z,28.40
2018-07-26T20:54:13.497Z,28.30
2018-07-26T20:56:17.902Z,28.20
2018-07-26T21:00:34.313Z,28.00
2018-07-26T21:02:39.820Z,28.00
2018-07-26T21:04:44.678Z,27.90
2018-07-26T21:06:49.198Z,27.90
2018-07-26T21:08:55.716Z,27.90
2018-07-26T21:11:00.360Z,27.80
2018-07-26T21:13:05.056Z,27.80
2018-07-26T21:15:10.394Z,27.80
2018-07-26T21:19:40.078Z,27.70
2018-07-26T21:21:44.948Z,27.60
2018-07-26T21:23:49.957Z,27.60
2018-07-26T21:26:01.420Z,27.50
2018-07-26T21:28:08.131Z,27.50
2018-07-26T21:30:13.527Z,27.50
2018-07-26T21:32:18.886Z,27.40
2018-07-26T21:34:26.596Z,27.40
2018-07-26T21:36:34.416Z,27.30
2018-07-26T21:38:40.843Z,27.30
2018-07-26T21:40:45.462Z,27.20
2018-07-26T21:42:56.506Z,27.20
2018-07-26T21:45:01.394Z,27.10
2018-07-26T21:47:06.032Z,27.10
2018-07-26T21:49:10.878Z,27.00
2018-07-26T21:51:17.077Z,26.90
2018-07-26T21:53:21.672Z,26.90
2018-07-26T21:55:26.228Z,26.80
2018-07-26T21:57:32.337Z,26.80
2018-07-26T21:59:47.919Z,26.70
2018-07-26T22:02:03.868Z,26.70
2018-07-26T22:04:08.605Z,26.60
2018-07-26T22:06:13.124Z,26.60
2018-07-26T22:08:17.877Z,26.50
2018-07-26T22:10:35.457Z,26.50
2018-07-26T22:12:40.304Z,26.50
2018-07-26T22:14:44.905Z,26.40
2018-07-26T22:16:49.311Z,26.40
2018-07-26T22:19:01.560Z,26.30
2018-07-26T22:23:12.700Z,26.20
2018-07-26T22:25:17.272Z,26.10
2018-07-26T22:27:28.543Z,26.10
2018-07-26T22:29:36.335Z,26.00
2018-07-26T22:31:41.712Z,26.00
2018-07-26T22:33:46.267Z,26.00
2018-07-26T22:35:51.340Z,25.90
2018-07-26T22:37:56.409Z,25.90
2018-07-26T22:40:05.312Z,25.80
2018-07-26T22:42:09.838Z,25.80
2018-07-26T22:44:14.520Z,25.70
2018-07-26T22:46:18.941Z,25.70
2018-07-26T22:48:26.116Z,25.60
2018-07-26T22:50:30.676Z,25.60
2018-07-26T22:52:35.687Z,25.50
2018-07-26T22:54:40.075Z,25.50
2018-07-26T22:56:44.524Z,25.40
2018-07-26T22:58:49.863Z,25.40
2018-07-26T23:00:54.643Z,25.40
2018-07-26T23:03:00.346Z,25.30
2018-07-26T23:05:05.236Z,25.20
2018-07-26T23:07:09.679Z,25.20
2018-07-26T23:09:14.154Z,25.10
2018-07-26T23:11:19.576Z,25.00
2018-07-26T23:13:24.148Z,25.00
2018-07-26T23:15:31.005Z,24.90
2018-07-26T23:17:35.945Z,24.80
2018-07-26T23:19:41.404Z,24.80
2018-07-26T23:21:46.495Z,24.80
2018-07-26T23:23:51.052Z,24.70
2018-07-26T23:25:56.601Z,24.70
2018-07-26T23:28:00.980Z,24.70
2018-07-26T23:30:13.635Z,24.60
2018-07-26T23:32:18.120Z,24.60
2018-07-26T23:34:25.395Z,24.60
2018-07-26T23:36:30.090Z,24.50
2018-07-26T23:38:37.390Z,24.50
2018-07-26T23:40:41.842Z,24.30
2018-07-26T23:42:48.798Z,24.20
2018-07-26T23:44:58.980Z,24.10
2018-07-26T23:47:05.977Z,24.00
2018-07-26T23:49:10.581Z,24.00
2018-07-26T23:51:15.080Z,23.90
2018-07-26T23:53:23.521Z,23.80
2018-07-26T23:55:28.859Z,23.80
2018-07-26T23:57:33.385Z,23.80
2018-07-26T23:59:42.859Z,23.80
